createdAt,value
2023-12-28T00:00:29.368Z,3.55
2023-12-28T00:02:57.172Z,3.38
2023-12-28T00:05:25.155Z,3.63
2023-12-28T00:07:58.860Z,3.22
2023-12-28T00:10:28.649Z,3.17
2023-12-28T00:12:56.866Z,3.65
2023-12-28T00:15:26.411Z,3.67
2023-12-28T00:17:54.319Z,2.97
2023-12-28T00:20:22.346Z,3.03
2023-12-28T00:22:50.132Z,3.58
2023-12-28T00:25:18.004Z,4.25
2023-12-28T00:27:46.928Z,3.33
2023-12-28T00:30:16.058Z,3.22
2023-12-28T00:32:47.120Z,3.20
2023-12-28T00:35:15.232Z,3.50
2023-12-28T00:37:43.263Z,3.63
2023-12-28T00:40:13.528Z,3.33
2023-12-28T00:42:42.155Z,3.42
2023-12-28T00:45:10.932Z,3.35
2023-12-28T00:47:39.045Z,3.47
2023-12-28T00:50:09.033Z,3.30
2023-12-28T00:52:37.676Z,3.03
2023-12-28T00:55:06.398Z,2.85
2023-12-28T00:57:34.356Z,3.10
2023-12-28T01:00:02.930Z,3.55
2023-12-28T01:02:30.803Z,3.70
2023-12-28T01:04:58.649Z,3.53
2023-12-28T01:07:28.286Z,3.22
2023-12-28T01:09:56.276Z,2.67
2023-12-28T01:12:25.788Z,3.85
2023-12-28T01:14:53.596Z,3.20
2023-12-28T01:17:21.413Z,3.33
2023-12-28T01:19:49.458Z,2.92
2023-12-28T01:22:18.245Z,2.83
2023-12-28T01:24:50.775Z,2.90
2023-12-28T01:27:18.822Z,3.20
2023-12-28T01:29:46.741Z,2.95
2023-12-28T01:32:14.622Z,2.90
2023-12-28T01:34:43.540Z,3.35
2023-12-28T01:37:11.512Z,3.05
2023-12-28T01:39:39.403Z,3.15
2023-12-28T01:42:08.681Z,3.50
2023-12-28T01:44:36.479Z,3.50
2023-12-28T01:47:04.697Z,4.20
2023-12-28T01:49:34.541Z,3.97
2023-12-28T01:52:03.984Z,3.13
2023-12-28T01:54:32.421Z,3.88
2023-12-28T01:57:02.385Z,3.50
2023-12-28T01:59:32.174Z,3.25
2023-12-28T02:02:00.340Z,3.55
2023-12-28T02:04:30.180Z,3.45
2023-12-28T02:06:59.795Z,2.97
2023-12-28T02:09:28.254Z,2.70
2023-12-28T02:11:56.769Z,2.72
2023-12-28T02:14:25.086Z,3.28
2023-12-28T02:17:02.853Z,3.10
2023-12-28T02:19:40.264Z,2.90
2023-12-28T02:22:10.194Z,3.63
2023-12-28T02:27:31.235Z,2.78
2023-12-28T02:30:00.339Z,3.53
2023-12-28T02:32:38.762Z,3.58
2023-12-28T02:35:17.255Z,3.42
2023-12-28T02:37:46.534Z,3.03
2023-12-28T02:40:17.545Z,3.15
2023-12-28T02:42:46.671Z,2.97
2023-12-28T02:45:15.656Z,4.15
2023-12-28T02:47:45.221Z,3.80
2023-12-28T02:50:13.200Z,3.75
2023-12-28T02:52:40.097Z,3.72
2023-12-28T02:55:09.088Z,4.07
2023-12-28T02:57:38.929Z,3.20
2023-12-28T03:00:09.876Z,3.00
2023-12-28T03:02:38.578Z,2.60
2023-12-28T03:05:08.048Z,4.18
2023-12-28T03:07:37.888Z,3.65
2023-12-28T03:10:06.613Z,3.50
2023-12-28T03:12:34.771Z,2.75
2023-12-28T03:15:02.669Z,3.00
2023-12-28T03:17:33.750Z,3.08
2023-12-28T03:20:01.885Z,2.92
2023-12-28T03:22:29.774Z,3.03
2023-12-28T03:24:57.619Z,3.08
2023-12-28T03:27:26.071Z,2.60
2023-12-28T03:29:53.972Z,3.20
2023-12-28T03:32:21.857Z,3.55
2023-12-28T03:34:52.508Z,2.85
2023-12-28T03:37:20.310Z,2.60
2023-12-28T03:39:48.372Z,2.50
2023-12-28T03:42:16.532Z,3.13
2023-12-28T03:44:45.057Z,2.78
2023-12-28T03:47:12.877Z,2.35
2023-12-28T03:49:41.546Z,2.97
2023-12-28T03:52:10.786Z,2.60
2023-12-28T03:54:39.015Z,2.75
2023-12-28T03:57:06.873Z,2.60
2023-12-28T03:59:34.740Z,2.50
2023-12-28T04:02:02.527Z,2.90
2023-12-28T04:04:30.943Z,2.55
2023-12-28T04:06:58.866Z,2.65
2023-12-28T04:09:28.163Z,2.10
2023-12-28T04:11:56.039Z,2.63
2023-12-28T04:14:24.177Z,2.67
2023-12-28T04:16:52.050Z,3.33
2023-12-28T04:19:21.383Z,2.70
2023-12-28T04:21:49.553Z,2.38
2023-12-28T04:24:17.426Z,2.60
2023-12-28T04:26:46.610Z,2.83
2023-12-28T04:29:14.884Z,2.50
2023-12-28T04:31:43.983Z,2.35
2023-12-28T04:34:11.968Z,3.08
2023-12-28T04:36:44.154Z,2.67
2023-12-28T04:39:12.042Z,2.78
2023-12-28T04:41:39.905Z,3.20
2023-12-28T04:44:09.123Z,2.78
2023-12-28T04:46:41.277Z,2.80
2023-12-28T04:51:38.273Z,3.20
2023-12-28T04:54:06.422Z,3.03
2023-12-28T04:56:34.196Z,2.72
2023-12-28T04:59:02.098Z,3.10
2023-12-28T05:01:32.742Z,2.42
2023-12-28T05:04:01.118Z,3.03
2023-12-28T05:06:30.278Z,2.90
2023-12-28T05:08:58.188Z,3.33
2023-12-28T05:11:26.010Z,3.20
2023-12-28T05:13:53.796Z,3.65
2023-12-28T05:16:22.073Z,2.50
2023-12-28T05:18:51.391Z,2.60
2023-12-28T05:21:19.654Z,2.38
2023-12-28T05:23:47.506Z,3.30
2023-12-28T05:26:15.293Z,3.63
2023-12-28T05:28:43.108Z,2.45
2023-12-28T05:31:10.955Z,3.00
2023-12-28T05:33:38.850Z,3.55
2023-12-28T05:36:11.581Z,3.50
2023-12-28T05:38:40.062Z,2.95
2023-12-28T05:41:07.903Z,4.13
2023-12-28T05:43:35.699Z,3.53
2023-12-28T05:46:03.571Z,3.70
2023-12-28T05:48:31.483Z,4.18
2023-12-28T05:50:59.574Z,3.15
2023-12-28T05:53:30.370Z,3.08
2023-12-28T05:55:58.095Z,2.63
2023-12-28T05:58:25.840Z,2.92
2023-12-28T06:00:55.576Z,2.75
2023-12-28T06:03:23.430Z,3.03
2023-12-28T06:05:51.268Z,3.25
2023-12-28T06:08:19.059Z,3.17
2023-12-28T06:10:48.176Z,3.00
2023-12-28T06:13:16.062Z,2.70
2023-12-28T06:15:44.842Z,3.42
2023-12-28T06:18:13.345Z,3.58
2023-12-28T06:20:41.462Z,3.97
2023-12-28T06:23:09.931Z,2.97
2023-12-28T06:25:37.721Z,2.95
2023-12-28T06:28:07.322Z,2.85
2023-12-28T06:30:35.275Z,3.67
2023-12-28T06:33:03.179Z,3.67
2023-12-28T06:35:31.089Z,2.83
2023-12-28T06:37:59.082Z,3.00
2023-12-28T06:40:27.004Z,3.22
2023-12-28T06:42:54.968Z,3.80
2023-12-28T06:45:28.922Z,4.00
2023-12-28T06:47:57.221Z,2.80
2023-12-28T06:50:25.278Z,3.13
2023-12-28T06:52:53.023Z,2.60
2023-12-28T06:55:20.801Z,3.35
2023-12-28T06:57:48.611Z,3.03
2023-12-28T07:00:16.900Z,2.88
2023-12-28T07:02:46.268Z,3.00
2023-12-28T07:05:15.220Z,3.13
2023-12-28T07:07:43.229Z,3.42
2023-12-28T07:10:11.240Z,3.25
2023-12-28T07:12:39.159Z,2.95
2023-12-28T07:15:07.524Z,3.38
2023-12-28T07:17:35.391Z,3.65
2023-12-28T07:20:05.272Z,3.70
2023-12-28T07:22:33.595Z,2.95
2023-12-28T07:25:01.560Z,4.80
2023-12-28T07:27:29.421Z,3.45
2023-12-28T07:29:57.448Z,3.42
2023-12-28T07:32:27.296Z,3.55
2023-12-28T07:34:55.370Z,3.63
2023-12-28T07:37:24.579Z,3.47
2023-12-28T07:39:52.551Z,4.20
2023-12-28T07:42:20.336Z,3.80
2023-12-28T07:44:48.225Z,3.67
2023-12-28T07:47:16.316Z,3.88
2023-12-28T07:49:44.703Z,3.97
2023-12-28T07:52:12.540Z,3.67
2023-12-28T07:54:41.800Z,4.65
2023-12-28T07:57:10.132Z,4.43
2023-12-28T07:59:37.934Z,3.65
2023-12-28T08:02:05.985Z,4.85
2023-12-28T08:04:33.855Z,4.30
2023-12-28T08:07:02.001Z,4.03
2023-12-28T08:09:30.329Z,3.92
2023-12-28T08:11:59.494Z,4.65
2023-12-28T08:14:28.488Z,4.65
2023-12-28T08:16:56.247Z,4.22
2023-12-28T08:19:24.077Z,4.45
2023-12-28T08:21:51.994Z,4.03
2023-12-28T08:24:19.821Z,5.72
2023-12-28T08:26:47.801Z,4.75
2023-12-28T08:29:17.000Z,5.10
2023-12-28T08:31:48.227Z,4.68
2023-12-28T08:34:16.702Z,4.10
2023-12-28T08:36:44.585Z,5.00
2023-12-28T08:39:12.424Z,5.25
2023-12-28T08:41:40.230Z,5.38
2023-12-28T08:44:07.993Z,7.53
2023-12-28T08:46:37.172Z,4.72
2023-12-28T08:49:05.202Z,6.25
2023-12-28T08:51:33.250Z,5.20
2023-12-28T08:54:01.096Z,4.75
2023-12-28T08:56:28.869Z,4.75
2023-12-28T08:58:56.586Z,4.68
2023-12-28T09:01:26.467Z,5.60
2023-12-28T09:03:56.387Z,5.93
2023-12-28T09:06:24.848Z,4.85
2023-12-28T09:08:54.630Z,5.13
2023-12-28T09:11:23.033Z,4.55
2023-12-28T09:13:50.921Z,4.57
2023-12-28T09:16:19.312Z,5.57
2023-12-28T09:18:47.463Z,6.20
2023-12-28T09:21:16.775Z,5.70
2023-12-28T09:23:44.607Z,4.93
2023-12-28T09:26:12.373Z,5.55
2023-12-28T09:28:41.146Z,4.30
2023-12-28T09:31:09.214Z,4.53
2023-12-28T09:33:37.775Z,4.55
2023-12-28T09:36:06.465Z,5.07
2023-12-28T09:38:35.740Z,4.38
2023-12-28T09:41:13.228Z,4.72
2023-12-28T09:43:51.578Z,4.03
2023-12-28T09:46:19.603Z,5.50
2023-12-28T09:48:48.133Z,5.18
2023-12-28T09:51:17.550Z,4.63
2023-12-28T09:53:48.271Z,5.55
2023-12-28T09:56:16.250Z,4.43
2023-12-28T09:58:46.214Z,4.22
2023-12-28T10:01:16.938Z,4.47
2023-12-28T10:03:45.112Z,4.47
2023-12-28T10:06:12.982Z,4.65
2023-12-28T10:08:48.921Z,4.70
2023-12-28T10:11:17.738Z,6.20
2023-12-28T10:13:45.712Z,5.20
2023-12-28T10:16:14.070Z,4.35
2023-12-28T10:18:43.753Z,4.45
2023-12-28T10:21:13.909Z,5.30
2023-12-28T10:23:42.459Z,4.80
2023-12-28T10:26:11.950Z,4.13
2023-12-28T10:28:40.770Z,4.25
2023-12-28T10:31:10.237Z,4.53
2023-12-28T10:33:38.898Z,4.30
2023-12-28T10:36:09.061Z,4.43
2023-12-28T10:38:38.633Z,4.70
2023-12-28T10:41:09.612Z,4.20
2023-12-28T10:43:47.701Z,5.50
2023-12-28T10:46:24.491Z,4.70
2023-12-28T10:49:00.259Z,5.78
2023-12-28T10:51:30.002Z,3.95
2023-12-28T10:54:12.664Z,4.85
2023-12-28T10:56:45.839Z,4.88
2023-12-28T10:59:23.483Z,4.00
2023-12-28T11:01:56.058Z,4.63
2023-12-28T11:04:31.528Z,4.10
2023-12-28T11:07:02.053Z,4.70
2023-12-28T11:09:33.551Z,4.43
2023-12-28T11:12:03.265Z,5.45
2023-12-28T11:14:33.342Z,4.10
2023-12-28T11:17:02.345Z,4.03
2023-12-28T11:19:31.138Z,4.40
2023-12-28T11:22:01.240Z,3.65
2023-12-28T11:24:30.524Z,4.15
2023-12-28T11:26:58.707Z,5.03
2023-12-28T11:29:27.110Z,4.82
2023-12-28T11:31:57.045Z,4.40
2023-12-28T11:34:28.025Z,4.53
2023-12-28T11:36:58.605Z,5.88
2023-12-28T11:39:34.773Z,4.72
2023-12-28T11:42:04.281Z,4.50
2023-12-28T11:44:32.892Z,3.88
2023-12-28T11:47:12.610Z,4.68
2023-12-28T11:49:41.872Z,4.03
2023-12-28T11:52:12.158Z,3.67
2023-12-28T11:54:40.023Z,5.00
2023-12-28T11:57:08.161Z,4.75
2023-12-28T11:59:35.997Z,4.68
2023-12-28T12:02:08.500Z,4.60
2023-12-28T12:04:36.813Z,4.53
2023-12-28T12:07:05.448Z,4.30
2023-12-28T12:09:35.809Z,4.55
2023-12-28T12:12:04.264Z,4.47
2023-12-28T12:14:32.803Z,4.68
2023-12-28T12:17:00.655Z,4.97
2023-12-28T12:19:30.520Z,5.13
2023-12-28T12:21:59.208Z,4.97
2023-12-28T12:24:27.022Z,4.45
2023-12-28T12:26:55.314Z,4.40
2023-12-28T12:29:29.114Z,4.63
2023-12-28T12:31:58.777Z,4.88
2023-12-28T12:34:26.887Z,5.13
2023-12-28T12:36:56.834Z,5.40
2023-12-28T12:39:26.102Z,5.00
2023-12-28T12:41:54.275Z,4.57
2023-12-28T12:44:22.197Z,5.55
2023-12-28T12:46:50.017Z,4.32
2023-12-28T12:49:19.141Z,5.30
2023-12-28T12:51:47.672Z,5.78
2023-12-28T12:54:19.840Z,4.93
2023-12-28T12:56:47.992Z,5.43
2023-12-28T12:59:18.420Z,4.68
2023-12-28T13:01:46.636Z,4.75
2023-12-28T13:04:15.533Z,4.72
2023-12-28T13:06:43.539Z,5.20
2023-12-28T13:09:12.466Z,4.63
2023-12-28T13:11:42.019Z,5.38
2023-12-28T13:14:09.802Z,4.22
2023-12-28T13:16:37.576Z,5.07
2023-12-28T13:19:05.767Z,4.35
2023-12-28T13:21:34.132Z,5.95
2023-12-28T13:24:03.554Z,4.50
2023-12-28T13:26:31.525Z,4.95
2023-12-28T13:29:02.077Z,4.10
2023-12-28T13:31:31.824Z,4.75
2023-12-28T13:34:00.167Z,4.82
2023-12-28T13:36:29.609Z,5.47
2023-12-28T13:38:57.597Z,4.88
2023-12-28T13:41:25.472Z,4.40
2023-12-28T13:44:00.219Z,4.65
2023-12-28T13:46:29.374Z,4.32
2023-12-28T13:48:58.235Z,5.40
2023-12-28T13:51:26.415Z,4.25
2023-12-28T13:53:54.266Z,5.32
2023-12-28T13:56:22.364Z,5.13
2023-12-28T13:58:50.310Z,5.45
2023-12-28T14:01:18.549Z,3.83
2023-12-28T14:03:52.372Z,4.80
2023-12-28T14:06:20.595Z,4.43
2023-12-28T14:08:48.658Z,4.45
2023-12-28T14:11:16.488Z,4.47
2023-12-28T14:13:44.290Z,4.25
2023-12-28T14:16:12.195Z,4.35
2023-12-28T14:18:43.193Z,4.70
2023-12-28T14:21:13.880Z,4.40
2023-12-28T14:23:42.596Z,3.92
2023-12-28T14:26:14.846Z,4.10
2023-12-28T14:28:43.929Z,4.32
2023-12-28T14:31:12.724Z,4.55
2023-12-28T14:33:42.453Z,4.50
2023-12-28T14:36:23.317Z,4.47
2023-12-28T14:38:51.154Z,4.97
2023-12-28T14:41:18.971Z,4.22
2023-12-28T14:43:46.803Z,5.13
2023-12-28T14:46:14.646Z,4.53
2023-12-28T14:48:42.500Z,4.13
2023-12-28T14:51:10.368Z,4.63
2023-12-28T14:53:39.555Z,4.38
2023-12-28T14:56:07.746Z,4.53
2023-12-28T14:58:35.712Z,4.82
2023-12-28T15:01:03.978Z,3.85
2023-12-28T15:03:31.980Z,5.00
2023-12-28T15:06:00.096Z,4.60
2023-12-28T15:08:28.180Z,4.10
2023-12-28T15:10:58.439Z,4.18
2023-12-28T15:13:26.374Z,4.70
2023-12-28T15:15:55.185Z,4.57
2023-12-28T15:18:23.845Z,4.53
2023-12-28T15:20:52.458Z,4.60
2023-12-28T15:23:21.701Z,4.00
2023-12-28T15:25:49.632Z,4.55
2023-12-28T15:28:19.764Z,3.95
2023-12-28T15:30:47.793Z,4.72
2023-12-28T15:33:15.820Z,4.00
2023-12-28T15:35:43.757Z,4.68
2023-12-28T15:38:11.873Z,4.28
2023-12-28T15:40:39.735Z,3.97
2023-12-28T15:43:07.599Z,4.32
2023-12-28T15:45:37.342Z,4.63
2023-12-28T15:48:05.930Z,3.72
2023-12-28T15:50:33.954Z,4.75
2023-12-28T15:53:01.805Z,4.07
2023-12-28T15:55:29.860Z,5.15
2023-12-28T15:57:58.050Z,4.63
2023-12-28T16:00:27.553Z,3.45
2023-12-28T16:02:56.942Z,4.40
2023-12-28T16:05:24.833Z,4.53
2023-12-28T16:07:52.742Z,3.67
2023-12-28T16:10:20.830Z,4.30
2023-12-28T16:12:48.945Z,4.07
2023-12-28T16:15:17.307Z,5.38
2023-12-28T16:17:47.982Z,4.18
2023-12-28T16:20:18.431Z,4.65
2023-12-28T16:22:46.763Z,4.05
2023-12-28T16:25:14.789Z,4.07
2023-12-28T16:27:42.727Z,4.57
2023-12-28T16:30:11.583Z,4.68
2023-12-28T16:32:39.670Z,4.03
2023-12-28T16:35:08.436Z,3.17
2023-12-28T16:37:37.636Z,3.67
2023-12-28T16:40:10.020Z,4.40
2023-12-28T16:42:39.159Z,4.43
2023-12-28T16:45:07.816Z,3.80
2023-12-28T16:47:35.717Z,4.35
2023-12-28T16:50:04.542Z,4.07
2023-12-28T16:52:32.428Z,4.60
2023-12-28T16:55:01.724Z,3.97
2023-12-28T16:57:29.694Z,4.10
2023-12-28T17:00:07.117Z,3.95
2023-12-28T17:02:39.532Z,3.75
2023-12-28T17:05:08.815Z,4.35
2023-12-28T17:07:36.931Z,5.10
2023-12-28T17:10:07.657Z,3.78
2023-12-28T17:12:39.555Z,3.78
2023-12-28T17:15:08.987Z,4.00
2023-12-28T17:17:37.827Z,3.80
2023-12-28T17:20:07.483Z,4.05
2023-12-28T17:22:46.906Z,4.30
2023-12-28T17:25:33.623Z,3.70
2023-12-28T17:28:07.444Z,3.85
2023-12-28T17:30:37.811Z,4.40
2023-12-28T17:33:06.401Z,3.75
2023-12-28T17:35:34.753Z,4.28
2023-12-28T17:38:03.346Z,3.78
2023-12-28T17:40:33.545Z,3.72
2023-12-28T17:43:07.012Z,4.25
2023-12-28T17:48:09.043Z,4.07
2023-12-28T17:50:38.564Z,4.25
2023-12-28T17:53:07.460Z,3.88
2023-12-28T17:55:36.985Z,3.85
2023-12-28T17:58:05.521Z,3.42
2023-12-28T18:00:33.507Z,4.22
2023-12-28T18:03:06.347Z,3.42
2023-12-28T18:05:34.295Z,4.18
2023-12-28T18:08:02.626Z,2.70
2023-12-28T18:10:30.572Z,3.65
2023-12-28T18:12:59.853Z,3.63
2023-12-28T18:15:27.755Z,4.13
2023-12-28T18:17:55.555Z,4.05
2023-12-28T18:20:23.513Z,4.38
2023-12-28T18:22:51.313Z,4.18
2023-12-28T18:25:19.183Z,4.57
2023-12-28T18:27:47.233Z,3.38
2023-12-28T18:30:16.813Z,3.45
2023-12-28T18:32:44.804Z,3.25
2023-12-28T18:35:14.231Z,3.63
2023-12-28T18:37:43.375Z,3.22
2023-12-28T18:40:12.601Z,3.53
2023-12-28T18:42:40.405Z,4.35
2023-12-28T18:45:09.810Z,4.22
2023-12-28T18:47:41.241Z,3.65
2023-12-28T18:50:09.565Z,4.30
2023-12-28T18:52:37.467Z,3.08
2023-12-28T18:55:06.350Z,3.58
2023-12-28T18:57:34.316Z,3.83
2023-12-28T19:00:02.276Z,3.15
2023-12-28T19:02:30.250Z,3.83
2023-12-28T19:04:59.666Z,3.83
2023-12-28T19:07:27.574Z,3.67
2023-12-28T19:09:55.450Z,4.28
2023-12-28T19:12:23.577Z,5.20
2023-12-28T19:14:51.503Z,3.95
2023-12-28T19:17:19.383Z,3.58
2023-12-28T19:19:47.399Z,3.90
2023-12-28T19:22:16.806Z,5.28
2023-12-28T19:24:44.683Z,3.67
2023-12-28T19:27:13.977Z,3.45
2023-12-28T19:29:41.756Z,3.80
2023-12-28T19:32:09.566Z,2.85
2023-12-28T19:34:37.389Z,4.07
2023-12-28T19:37:05.598Z,3.50
2023-12-28T19:39:35.004Z,3.47
2023-12-28T19:42:02.983Z,3.72
2023-12-28T19:44:31.256Z,2.95
2023-12-28T19:46:59.093Z,3.30
2023-12-28T19:49:28.367Z,4.65
2023-12-28T19:51:56.629Z,3.67
2023-12-28T19:54:24.498Z,3.60
2023-12-28T19:56:53.978Z,3.10
2023-12-28T19:59:21.931Z,3.03
2023-12-28T20:01:50.424Z,3.28
2023-12-28T20:04:18.676Z,4.25
2023-12-28T20:06:47.405Z,3.47
2023-12-28T20:09:15.502Z,3.35
2023-12-28T20:11:43.626Z,3.25
2023-12-28T20:14:14.438Z,3.65
2023-12-28T20:16:43.300Z,3.88
2023-12-28T20:19:11.477Z,4.28
2023-12-28T20:21:40.878Z,3.42
2023-12-28T20:24:10.505Z,3.08
2023-12-28T20:26:38.906Z,3.10
2023-12-28T20:29:08.003Z,3.70
2023-12-28T20:31:37.195Z,3.58
2023-12-28T20:34:05.238Z,4.45
2023-12-28T20:36:33.240Z,3.13
2023-12-28T20:39:01.153Z,3.60
2023-12-28T20:41:28.933Z,3.85
2023-12-28T20:43:56.773Z,3.60
2023-12-28T20:46:24.689Z,3.28
2023-12-28T20:48:53.957Z,4.63
2023-12-28T20:51:21.946Z,3.25
2023-12-28T20:53:49.866Z,3.13
2023-12-28T20:56:17.869Z,2.55
2023-12-28T20:58:46.263Z,3.45
2023-12-28T21:01:14.662Z,4.18
2023-12-28T21:03:42.459Z,3.30
2023-12-28T21:06:11.679Z,3.53
2023-12-28T21:08:39.551Z,3.42
2023-12-28T21:11:07.394Z,3.60
2023-12-28T21:13:39.547Z,3.35
2023-12-28T21:16:08.417Z,2.92
2023-12-28T21:18:36.803Z,5.00
2023-12-28T21:21:11.094Z,3.42
2023-12-28T21:23:41.932Z,3.40
2023-12-28T21:26:10.132Z,4.05
2023-12-28T21:28:38.117Z,3.30
2023-12-28T21:31:06.184Z,3.75
2023-12-28T21:33:34.511Z,3.03
2023-12-28T21:36:03.000Z,3.72
2023-12-28T21:38:30.853Z,2.90
2023-12-28T21:41:00.033Z,3.65
2023-12-28T21:43:30.376Z,3.88
2023-12-28T21:45:58.341Z,3.10
2023-12-28T21:48:26.569Z,3.47
2023-12-28T21:50:54.647Z,3.35
2023-12-28T21:53:22.698Z,3.60
2023-12-28T21:55:50.661Z,3.55
2023-12-28T21:58:20.042Z,3.10
2023-12-28T22:00:48.251Z,2.90
2023-12-28T22:03:16.276Z,3.60
2023-12-28T22:05:44.223Z,3.03
2023-12-28T22:08:13.658Z,3.88
2023-12-28T22:10:42.106Z,3.47
2023-12-28T22:13:10.090Z,4.18
2023-12-28T22:15:39.345Z,3.63
2023-12-28T22:18:09.141Z,3.55
2023-12-28T22:20:37.141Z,3.67
2023-12-28T22:23:05.165Z,2.95
2023-12-28T22:25:33.129Z,3.13
2023-12-28T22:28:01.277Z,2.88
2023-12-28T22:30:32.593Z,3.20
2023-12-28T22:33:02.187Z,2.70
2023-12-28T22:35:30.071Z,3.95
2023-12-28T22:37:58.069Z,3.45
2023-12-28T22:40:26.055Z,3.20
2023-12-28T22:42:54.454Z,2.88
2023-12-28T22:45:22.480Z,3.97
2023-12-28T22:47:50.347Z,3.05
2023-12-28T22:50:19.569Z,3.42
2023-12-28T22:52:47.397Z,3.53
2023-12-28T22:55:15.454Z,3.08
2023-12-28T22:57:43.342Z,2.70
2023-12-28T23:00:23.859Z,3.47
2023-12-28T23:02:52.546Z,2.80
2023-12-28T23:05:21.958Z,3.90
2023-12-28T23:07:50.350Z,4.53
2023-12-28T23:10:18.282Z,3.15
2023-12-28T23:12:46.168Z,3.55
2023-12-28T23:15:14.165Z,3.08
2023-12-28T23:17:41.968Z,2.97
2023-12-28T23:20:10.414Z,3.20
2023-12-28T23:22:41.753Z,3.65
2023-12-28T23:25:10.069Z,4.10
2023-12-28T23:27:37.981Z,3.70
2023-12-28T23:30:06.683Z,3.50
2023-12-28T23:32:34.498Z,3.30
2023-12-28T23:35:02.618Z,3.45
2023-12-28T23:37:30.757Z,2.85
2023-12-28T23:40:00.001Z,3.85
2023-12-28T23:42:27.802Z,3.63
2023-12-28T23:44:55.669Z,2.65
2023-12-28T23:47:23.401Z,3.30
2023-12-28T23:49:51.243Z,4.05
2023-12-28T23:52:19.080Z,3.28
2023-12-28T23:54:47.025Z,3.95
2023-12-28T23:57:16.190Z,3.05
2023-12-28T23:59:43.960Z,3.17
